createdAt,value
2022-08-25T00:00:12.486Z,23.55
2022-08-25T00:02:39.150Z,23.38
2022-08-25T00:05:06.523Z,23.26
2022-08-25T00:07:34.049Z,22.99
2022-08-25T00:10:00.685Z,23.07
2022-08-25T00:12:27.407Z,23.07
2022-08-25T00:14:55.089Z,23.58
2022-08-25T00:17:21.701Z,23.83
2022-08-25T00:19:48.392Z,23.91
2022-08-25T00:22:15.048Z,23.71
2022-08-25T00:24:41.774Z,23.92
2022-08-25T00:27:12.624Z,23.40
2022-08-25T00:29:39.681Z,23.44
2022-08-25T00:32:06.659Z,23.46
2022-08-25T00:34:37.732Z,23.25
2022-08-25T00:37:07.546Z,22.97
2022-08-25T00:39:34.865Z,22.93
2022-08-25T00:42:03.127Z,23.24
2022-08-25T00:44:33.204Z,23.52
2022-08-25T00:47:02.065Z,23.52
2022-08-25T00:49:43.916Z,22.91
2022-08-25T00:52:18.284Z,22.78
2022-08-25T00:54:48.225Z,22.72
2022-08-25T00:57:22.182Z,23.03
2022-08-25T01:00:05.143Z,23.21
2022-08-25T01:02:31.894Z,22.96
2022-08-25T01:04:58.851Z,22.25
2022-08-25T01:07:25.664Z,22.43
2022-08-25T01:09:53.376Z,23.14
2022-08-25T01:12:21.258Z,23.42
2022-08-25T01:14:49.986Z,23.30
2022-08-25T01:17:17.088Z,22.64
2022-08-25T01:19:44.379Z,23.57
2022-08-25T01:22:12.044Z,23.87
2022-08-25T01:24:50.880Z,23.88
2022-08-25T01:27:17.520Z,23.34
2022-08-25T01:29:44.242Z,22.60
2022-08-25T01:32:14.131Z,22.47
2022-08-25T01:34:45.709Z,22.85
2022-08-25T01:37:15.711Z,23.41
2022-08-25T01:39:43.654Z,23.36
2022-08-25T01:43:06.604Z,23.48
2022-08-25T01:45:36.667Z,23.32
2022-08-25T01:48:05.061Z,23.28
2022-08-25T01:50:31.997Z,23.28
2022-08-25T01:53:15.368Z,23.60
2022-08-25T01:56:01.420Z,23.39
2022-08-25T01:58:35.882Z,23.63
2022-08-25T02:01:08.151Z,23.52
2022-08-25T02:03:42.288Z,23.86
2022-08-25T02:06:12.243Z,23.06
2022-08-25T02:08:39.638Z,23.09
2022-08-25T02:11:06.717Z,22.54
2022-08-25T02:13:33.404Z,21.81
2022-08-25T02:16:02.214Z,22.05
2022-08-25T02:18:29.466Z,22.49
2022-08-25T02:20:56.293Z,21.76
2022-08-25T02:23:22.984Z,21.87
2022-08-25T02:25:49.591Z,21.58
2022-08-25T02:28:16.763Z,21.23
2022-08-25T02:30:43.559Z,21.75
2022-08-25T02:33:10.578Z,21.91
2022-08-25T02:35:38.198Z,22.11
2022-08-25T02:38:05.411Z,21.99
2022-08-25T02:40:32.242Z,21.80
2022-08-25T02:42:58.923Z,21.91
2022-08-25T02:45:25.674Z,21.21
2022-08-25T02:47:52.753Z,21.60
2022-08-25T02:50:19.521Z,21.34
2022-08-25T02:52:46.531Z,21.82
2022-08-25T02:55:14.238Z,22.27
2022-08-25T02:57:42.552Z,22.39
2022-08-25T03:00:15.076Z,22.65
2022-08-25T03:02:42.543Z,22.16
2022-08-25T03:05:11.243Z,22.18
2022-08-25T03:07:38.553Z,22.21
2022-08-25T03:10:16.310Z,21.77
2022-08-25T03:12:43.214Z,21.47
2022-08-25T03:15:12.970Z,21.59
2022-08-25T03:17:40.381Z,21.96
2022-08-25T03:20:08.336Z,22.14
2022-08-25T03:22:36.343Z,22.18
2022-08-25T03:25:24.292Z,22.13
2022-08-25T03:27:51.994Z,22.53
2022-08-25T03:30:19.413Z,21.75
2022-08-25T03:32:46.511Z,21.44
2022-08-25T03:35:13.591Z,22.14
2022-08-25T03:37:40.990Z,22.16
2022-08-25T03:40:15.302Z,22.18
2022-08-25T03:42:45.760Z,22.39
2022-08-25T03:45:16.400Z,22.41
2022-08-25T03:47:47.919Z,22.44
2022-08-25T03:50:17.200Z,22.44
2022-08-25T03:52:44.500Z,22.58
2022-08-25T03:55:14.597Z,22.43
2022-08-25T03:57:41.546Z,22.15
2022-08-25T04:00:12.152Z,22.04
2022-08-25T04:02:40.111Z,21.79
2022-08-25T04:05:08.274Z,21.76
2022-08-25T04:07:35.754Z,21.70
2022-08-25T04:10:02.593Z,21.48
2022-08-25T04:12:29.338Z,21.61
2022-08-25T04:14:58.244Z,22.17
2022-08-25T04:17:25.401Z,22.27
2022-08-25T04:19:52.140Z,21.79
2022-08-25T04:22:19.756Z,22.10
2022-08-25T04:24:46.568Z,21.71
2022-08-25T04:27:13.290Z,22.14
2022-08-25T04:29:40.131Z,22.75
2022-08-25T04:32:07.026Z,22.97
2022-08-25T04:34:33.997Z,22.96
2022-08-25T04:37:05.432Z,22.32
2022-08-25T04:39:32.300Z,22.00
2022-08-25T04:42:00.649Z,22.10
2022-08-25T04:44:29.085Z,22.47
2022-08-25T04:46:55.995Z,22.29
2022-08-25T04:49:23.182Z,22.12
2022-08-25T04:51:49.874Z,22.26
2022-08-25T04:54:21.420Z,22.65
2022-08-25T04:56:50.272Z,22.77
2022-08-25T04:59:21.571Z,22.17
2022-08-25T05:01:50.107Z,21.67
2022-08-25T05:04:28.305Z,22.18
2022-08-25T05:06:57.506Z,22.42
2022-08-25T05:09:25.443Z,23.09
2022-08-25T05:11:53.527Z,22.95
2022-08-25T05:14:25.608Z,22.30
2022-08-25T05:16:55.387Z,22.22
2022-08-25T05:19:24.083Z,22.32
2022-08-25T05:21:51.358Z,22.06
2022-08-25T05:24:18.848Z,21.65
2022-08-25T05:26:45.946Z,22.44
2022-08-25T05:29:13.285Z,22.52
2022-08-25T05:31:43.972Z,23.34
2022-08-25T05:34:12.753Z,23.30
2022-08-25T05:36:43.302Z,22.94
2022-08-25T05:39:10.991Z,23.38
2022-08-25T05:41:38.246Z,23.80
2022-08-25T05:44:05.235Z,23.68
2022-08-25T05:46:32.422Z,23.02
2022-08-25T05:48:59.307Z,22.53
2022-08-25T05:51:26.761Z,22.97
2022-08-25T05:53:53.959Z,22.47
2022-08-25T05:56:20.793Z,21.82
2022-08-25T05:58:47.860Z,21.98
2022-08-25T06:01:45.071Z,22.95
2022-08-25T06:04:13.753Z,23.76
2022-08-25T06:06:42.127Z,22.72
2022-08-25T06:09:10.181Z,21.68
2022-08-25T06:11:39.895Z,22.79
2022-08-25T06:14:08.805Z,23.61
2022-08-25T06:16:35.595Z,23.55
2022-08-25T06:19:02.456Z,23.32
2022-08-25T06:21:29.302Z,23.32
2022-08-25T06:23:56.223Z,22.92
2022-08-25T06:26:23.384Z,23.42
2022-08-25T06:28:51.233Z,22.98
2022-08-25T06:31:20.394Z,22.84
2022-08-25T06:33:47.179Z,23.18
2022-08-25T06:36:15.333Z,23.59
2022-08-25T06:38:42.506Z,23.76
2022-08-25T06:41:13.913Z,23.32
2022-08-25T06:43:47.957Z,23.63
2022-08-25T06:46:22.239Z,23.89
2022-08-25T06:48:56.787Z,24.27
2022-08-25T06:51:26.517Z,24.33
2022-08-25T06:53:54.063Z,24.04
2022-08-25T06:56:21.974Z,24.54
2022-08-25T06:58:50.822Z,23.87
2022-08-25T07:01:27.121Z,23.40
2022-08-25T07:03:57.662Z,23.31
2022-08-25T07:06:26.094Z,23.15
2022-08-25T07:08:53.519Z,23.26
2022-08-25T07:11:21.434Z,23.58
2022-08-25T07:13:49.212Z,23.10
2022-08-25T07:16:18.407Z,23.12
2022-08-25T07:18:45.498Z,23.96
2022-08-25T07:21:14.723Z,24.36
2022-08-25T07:23:42.466Z,23.39
2022-08-25T07:26:37.369Z,23.02
2022-08-25T07:29:19.585Z,22.60
2022-08-25T07:31:46.605Z,23.34
2022-08-25T07:34:32.856Z,23.24
2022-08-25T07:37:05.133Z,24.61
2022-08-25T07:39:34.072Z,24.72
2022-08-25T07:42:00.896Z,23.68
2022-08-25T07:44:28.718Z,24.19
2022-08-25T07:46:56.106Z,23.81
2022-08-25T07:49:25.475Z,23.61
2022-08-25T07:52:06.149Z,24.91
2022-08-25T07:54:37.762Z,24.37
2022-08-25T07:57:08.505Z,24.72
2022-08-25T07:59:39.615Z,24.18
2022-08-25T08:02:18.248Z,24.28
2022-08-25T08:04:49.773Z,24.26
2022-08-25T08:07:23.846Z,25.22
2022-08-25T08:10:47.956Z,25.03
2022-08-25T08:12:57.424Z,25.71
2022-08-25T08:15:24.229Z,26.40
2022-08-25T08:17:52.685Z,26.44
2022-08-25T08:20:23.574Z,25.87
2022-08-25T08:22:50.534Z,26.03
2022-08-25T08:25:21.146Z,25.34
2022-08-25T08:27:48.799Z,24.54
2022-08-25T08:30:15.576Z,24.69
2022-08-25T08:33:06.191Z,24.94
2022-08-25T08:35:29.845Z,25.77
2022-08-25T08:37:56.686Z,25.13
2022-08-25T08:40:24.687Z,24.82
2022-08-25T08:43:18.201Z,24.65
2022-08-25T08:45:53.130Z,25.62
2022-08-25T08:48:54.472Z,25.89
2022-08-25T08:51:32.931Z,27.08
2022-08-25T08:54:25.057Z,26.62
2022-08-25T08:57:08.474Z,26.67
2022-08-25T08:59:52.507Z,26.99
2022-08-25T09:02:39.173Z,25.99
2022-08-25T09:05:20.901Z,24.95
2022-08-25T09:07:56.820Z,25.52
2022-08-25T09:10:26.828Z,26.61
2022-08-25T09:13:32.838Z,27.90
2022-08-25T09:16:48.863Z,25.67
2022-08-25T09:19:31.381Z,25.84
2022-08-25T09:22:35.745Z,26.77
2022-08-25T09:25:12.228Z,27.22
2022-08-25T09:28:08.495Z,28.17
2022-08-25T09:30:59.019Z,28.49
2022-08-25T09:33:29.695Z,27.50
2022-08-25T09:35:57.759Z,28.07
2022-08-25T09:38:26.801Z,27.70
2022-08-25T09:41:01.030Z,26.76
2022-08-25T09:43:38.179Z,27.22
2022-08-25T09:46:27.014Z,26.38
2022-08-25T09:49:10.565Z,25.63
2022-08-25T09:51:43.331Z,26.49
2022-08-25T09:54:13.129Z,26.18
2022-08-25T09:57:02.103Z,28.11
2022-08-25T09:59:36.288Z,26.92
2022-08-25T10:02:23.906Z,27.18
2022-08-25T10:04:51.010Z,26.99
2022-08-25T10:07:39.658Z,27.75
2022-08-25T10:10:25.915Z,27.91
2022-08-25T10:12:52.769Z,27.45
2022-08-25T10:15:31.269Z,27.18
2022-08-25T10:18:25.610Z,28.86
2022-08-25T10:21:14.599Z,29.47
2022-08-25T10:23:52.737Z,29.51
2022-08-25T10:26:47.676Z,29.59
2022-08-25T10:29:32.583Z,29.71
2022-08-25T10:32:12.308Z,28.86
2022-08-25T10:34:51.406Z,29.20
2022-08-25T10:37:39.809Z,28.80
2022-08-25T10:40:24.918Z,28.47
2022-08-25T10:43:15.253Z,28.54
2022-08-25T10:45:56.581Z,28.30
2022-08-25T10:48:50.189Z,27.37
2022-08-25T10:52:08.944Z,27.15
2022-08-25T10:54:58.272Z,28.08
2022-08-25T10:57:56.185Z,27.60
2022-08-25T11:00:28.754Z,27.51
2022-08-25T11:03:35.157Z,29.66
2022-08-25T11:06:19.623Z,30.22
2022-08-25T11:09:00.720Z,29.55
2022-08-25T11:11:49.567Z,29.90
2022-08-25T11:14:34.626Z,30.22
2022-08-25T11:17:50.117Z,30.43
2022-08-25T11:20:27.132Z,30.22
2022-08-25T11:23:19.742Z,29.65
2022-08-25T11:25:52.488Z,29.43
2022-08-25T11:28:46.652Z,28.56
2022-08-25T11:31:15.784Z,28.94
2022-08-25T11:33:43.700Z,29.07
2022-08-25T11:36:50.599Z,29.63
2022-08-25T11:39:48.971Z,29.47
2022-08-25T11:42:30.676Z,30.26
2022-08-25T11:45:22.431Z,30.06
2022-08-25T11:48:32.972Z,29.22
2022-08-25T11:51:09.490Z,29.52
2022-08-25T11:53:44.099Z,30.02
2022-08-25T11:56:36.333Z,29.97
2022-08-25T11:59:06.982Z,29.79
2022-08-25T12:01:39.441Z,29.27
2022-08-25T12:04:45.036Z,29.61
2022-08-25T12:07:16.883Z,30.77
2022-08-25T12:09:51.174Z,31.15
2022-08-25T12:12:46.612Z,31.35
2022-08-25T12:15:42.125Z,31.58
2022-08-25T12:18:21.770Z,31.33
2022-08-25T12:20:54.574Z,32.00
2022-08-25T12:23:44.850Z,31.54
2022-08-25T12:27:02.011Z,32.09
2022-08-25T12:30:29.016Z,31.63
2022-08-25T12:33:42.991Z,32.39
2022-08-25T12:36:25.384Z,32.98
2022-08-25T12:38:53.677Z,33.44
2022-08-25T12:41:26.130Z,33.90
2022-08-25T12:44:09.767Z,34.66
2022-08-25T12:46:39.340Z,33.17
2022-08-25T12:49:34.409Z,32.21
2022-08-25T12:52:11.481Z,31.57
2022-08-25T12:54:59.457Z,32.29
2022-08-25T12:57:45.303Z,31.61
2022-08-25T13:06:32.201Z,31.16
2022-08-25T13:10:02.930Z,31.82
2022-08-25T13:13:04.445Z,33.04
2022-08-25T13:16:00.948Z,33.94
2022-08-25T13:18:31.177Z,33.30
2022-08-25T13:21:19.486Z,33.10
2022-08-25T13:23:50.784Z,33.17
2022-08-25T13:26:31.713Z,33.19
2022-08-25T13:29:09.295Z,33.74
2022-08-25T13:31:42.120Z,32.27
2022-08-25T13:34:19.764Z,33.32
2022-08-25T13:37:07.810Z,32.83
2022-08-25T13:39:55.339Z,30.99
2022-08-25T13:42:27.402Z,30.65
2022-08-25T13:44:55.809Z,32.23
2022-08-25T13:47:43.509Z,33.25
2022-08-25T13:50:30.810Z,33.49
2022-08-25T13:53:25.825Z,32.03
2022-08-25T13:55:59.722Z,31.16
2022-08-25T13:58:45.296Z,31.05
2022-08-25T14:01:48.635Z,31.94
2022-08-25T14:04:50.802Z,32.47
2022-08-25T14:07:21.198Z,32.43
2022-08-25T14:10:11.286Z,33.50
2022-08-25T14:12:47.920Z,34.36
2022-08-25T14:15:22.098Z,35.06
2022-08-25T14:18:27.117Z,35.49
2022-08-25T14:20:56.354Z,34.57
2022-08-25T14:23:29.751Z,34.87
2022-08-25T14:25:58.391Z,35.05
2022-08-25T14:28:29.387Z,35.10
2022-08-25T14:31:02.005Z,34.89
2022-08-25T14:33:50.062Z,35.26
2022-08-25T14:36:18.618Z,34.31
2022-08-25T14:38:47.861Z,34.40
2022-08-25T14:41:23.661Z,34.81
2022-08-25T14:43:50.545Z,34.66
2022-08-25T14:46:25.292Z,33.64
2022-08-25T14:48:59.937Z,34.99
2022-08-25T14:51:29.783Z,35.67
2022-08-25T14:54:02.521Z,35.90
2022-08-25T14:56:31.142Z,35.89
2022-08-25T14:58:59.649Z,35.96
2022-08-25T15:01:28.841Z,36.77
2022-08-25T15:04:20.922Z,37.94
2022-08-25T15:06:54.682Z,37.78
2022-08-25T15:09:21.818Z,36.75
2022-08-25T15:11:55.323Z,36.77
2022-08-25T15:14:28.917Z,37.15
2022-08-25T15:17:01.600Z,37.07
2022-08-25T15:19:29.439Z,37.44
2022-08-25T15:21:58.057Z,36.30
2022-08-25T15:24:27.058Z,35.75
2022-08-25T15:27:01.972Z,35.93
2022-08-25T15:29:31.299Z,36.76
2022-08-25T15:32:00.284Z,36.52
2022-08-25T15:34:27.851Z,36.09
2022-08-25T15:36:57.918Z,36.74
2022-08-25T15:39:24.682Z,37.30
2022-08-25T15:41:54.154Z,37.43
2022-08-25T15:44:24.113Z,37.73
2022-08-25T15:46:52.988Z,37.89
2022-08-25T15:49:23.915Z,37.58
2022-08-25T15:51:54.261Z,37.00
2022-08-25T15:54:23.484Z,35.80
2022-08-25T15:56:50.875Z,34.86
2022-08-25T15:59:21.620Z,35.31
2022-08-25T16:01:53.224Z,36.40
2022-08-25T16:04:25.207Z,37.26
2022-08-25T16:06:52.463Z,36.95
2022-08-25T16:09:22.993Z,37.38
2022-08-25T16:11:57.243Z,38.01
2022-08-25T16:14:27.664Z,37.71
2022-08-25T16:16:58.515Z,37.71
2022-08-25T16:19:29.140Z,36.52
2022-08-25T16:21:56.771Z,36.77
2022-08-25T16:24:24.274Z,36.75
2022-08-25T16:26:51.972Z,36.29
2022-08-25T16:29:20.031Z,36.50
2022-08-25T16:31:53.347Z,36.23
2022-08-25T16:34:24.358Z,35.67
2022-08-25T16:36:52.617Z,36.05
2022-08-25T16:39:21.610Z,36.14
2022-08-25T16:41:52.185Z,36.82
2022-08-25T16:44:22.503Z,36.62
2022-08-25T16:46:54.054Z,36.01
2022-08-25T16:49:21.963Z,36.24
2022-08-25T16:51:54.371Z,36.15
2022-08-25T16:54:44.108Z,36.74
2022-08-25T16:57:10.968Z,36.14
2022-08-25T16:59:37.653Z,35.28
2022-08-25T17:02:06.437Z,35.00
2022-08-25T17:04:33.280Z,34.97
2022-08-25T17:07:00.114Z,33.86
2022-08-25T17:09:29.650Z,33.83
2022-08-25T17:11:57.148Z,34.09
2022-08-25T17:14:24.891Z,33.63
2022-08-25T17:16:54.678Z,33.80
2022-08-25T17:19:22.217Z,33.80
2022-08-25T17:21:52.325Z,33.46
2022-08-25T17:24:19.122Z,32.47
2022-08-25T17:26:49.973Z,32.35
2022-08-25T17:29:18.512Z,32.73
2022-08-25T17:31:46.359Z,32.00
2022-08-25T17:34:16.303Z,32.21
2022-08-25T17:36:43.994Z,31.96
2022-08-25T17:39:14.021Z,31.92
2022-08-25T17:41:43.003Z,31.62
2022-08-25T17:44:09.812Z,31.58
2022-08-25T17:46:36.897Z,30.73
2022-08-25T17:49:05.098Z,31.36
2022-08-25T17:51:32.247Z,31.18
2022-08-25T17:53:59.288Z,31.49
2022-08-25T17:56:27.795Z,30.72
2022-08-25T17:58:56.274Z,30.35
2022-08-25T18:01:31.085Z,30.66
2022-08-25T18:03:59.284Z,30.17
2022-08-25T18:06:29.552Z,30.53
2022-08-25T18:09:00.146Z,30.67
2022-08-25T18:11:28.809Z,30.50
2022-08-25T18:13:57.345Z,30.49
2022-08-25T18:16:25.027Z,30.07
2022-08-25T18:18:53.723Z,30.02
2022-08-25T18:21:22.630Z,30.23
2022-08-25T18:23:50.121Z,29.49
2022-08-25T18:26:19.286Z,29.57
2022-08-25T18:28:51.468Z,29.70
2022-08-25T18:31:19.802Z,29.73
2022-08-25T18:33:47.096Z,29.83
2022-08-25T18:36:17.829Z,29.65
2022-08-25T18:39:04.234Z,29.87
2022-08-25T18:41:39.318Z,30.04
2022-08-25T18:44:07.535Z,30.24
2022-08-25T18:46:35.065Z,29.60
2022-08-25T18:49:02.665Z,30.02
2022-08-25T18:51:32.859Z,29.73
2022-08-25T18:54:01.129Z,29.11
2022-08-25T18:56:29.147Z,28.87
2022-08-25T18:58:56.673Z,28.90
2022-08-25T19:01:24.169Z,28.94
2022-08-25T19:03:51.059Z,29.21
2022-08-25T19:06:19.200Z,29.61
2022-08-25T19:08:46.670Z,29.12
2022-08-25T19:11:14.840Z,29.34
2022-08-25T19:13:43.569Z,29.08
2022-08-25T19:16:34.457Z,29.07
2022-08-25T19:19:03.652Z,29.64
2022-08-25T19:21:31.216Z,29.52
2022-08-25T19:23:58.252Z,28.97
2022-08-25T19:26:25.900Z,29.58
2022-08-25T19:28:53.812Z,28.83
2022-08-25T19:31:23.376Z,28.84
2022-08-25T19:33:52.715Z,28.66
2022-08-25T19:36:28.022Z,28.24
2022-08-25T19:39:00.096Z,28.11
2022-08-25T19:41:29.571Z,28.04
2022-08-25T19:43:57.605Z,27.88
2022-08-25T19:46:35.532Z,27.78
2022-08-25T19:49:08.967Z,28.58
2022-08-25T19:51:40.040Z,29.07
2022-08-25T19:54:10.195Z,28.86
2022-08-25T19:56:43.601Z,28.88
2022-08-25T19:59:25.255Z,28.93
2022-08-25T20:01:52.116Z,28.72
2022-08-25T20:04:18.852Z,28.62
2022-08-25T20:06:48.430Z,28.82
2022-08-25T20:09:20.778Z,28.25
2022-08-25T20:11:48.044Z,27.68
2022-08-25T20:14:15.941Z,26.81
2022-08-25T20:16:43.760Z,27.27
2022-08-25T20:19:11.410Z,27.78
2022-08-25T20:21:43.141Z,28.22
2022-08-25T20:24:29.037Z,28.40
2022-08-25T20:26:56.462Z,28.70
2022-08-25T20:29:23.189Z,28.07
2022-08-25T20:31:49.996Z,28.27
2022-08-25T20:34:16.798Z,28.48
2022-08-25T20:36:50.197Z,28.20
2022-08-25T20:39:18.038Z,28.17
2022-08-25T20:41:48.401Z,28.20
2022-08-25T20:44:16.441Z,27.63
2022-08-25T20:46:44.903Z,27.49
2022-08-25T20:49:13.550Z,27.22
2022-08-25T20:51:40.736Z,27.36
2022-08-25T20:54:08.332Z,27.70
2022-08-25T20:56:35.013Z,28.31
2022-08-25T20:59:02.125Z,28.39
2022-08-25T21:01:39.754Z,28.41
2022-08-25T21:04:15.265Z,28.56
2022-08-25T21:06:43.718Z,28.21
2022-08-25T21:09:15.954Z,27.91
2022-08-25T21:11:44.968Z,27.36
2022-08-25T21:14:13.519Z,26.67
2022-08-25T21:16:46.286Z,26.64
2022-08-25T21:19:16.703Z,26.55
2022-08-25T21:21:54.160Z,26.17
2022-08-25T21:24:28.291Z,27.12
2022-08-25T21:26:57.730Z,27.46
2022-08-25T21:29:28.529Z,27.64
2022-08-25T21:31:58.667Z,27.74
2022-08-25T21:34:28.881Z,26.77
2022-08-25T21:37:00.253Z,26.79
2022-08-25T21:39:29.525Z,26.84
2022-08-25T21:42:00.286Z,26.65
2022-08-25T21:44:28.386Z,26.79
2022-08-25T21:46:55.326Z,26.98
2022-08-25T21:49:24.151Z,26.87
2022-08-25T21:52:00.258Z,27.34
2022-08-25T21:54:29.047Z,27.29
2022-08-25T21:57:05.888Z,26.97
2022-08-25T21:59:40.617Z,26.90
2022-08-25T22:02:11.797Z,26.71
2022-08-25T22:04:39.499Z,26.56
2022-08-25T22:07:08.741Z,26.70
2022-08-25T22:09:36.373Z,26.36
2022-08-25T22:12:04.901Z,26.02
2022-08-25T22:14:32.585Z,26.32
2022-08-25T22:16:59.871Z,26.61
2022-08-25T22:19:27.582Z,26.82
2022-08-25T22:21:55.735Z,27.00
2022-08-25T22:24:22.724Z,26.36
2022-08-25T22:26:55.816Z,26.28
2022-08-25T22:29:25.430Z,26.42
2022-08-25T22:32:02.103Z,26.18
2022-08-25T22:34:32.625Z,26.10
2022-08-25T22:37:02.403Z,26.30
2022-08-25T22:39:30.908Z,25.95
2022-08-25T22:41:58.951Z,25.35
2022-08-25T22:44:26.341Z,24.87
2022-08-25T22:46:53.433Z,25.33
2022-08-25T22:49:20.218Z,25.82
2022-08-25T22:51:47.710Z,25.59
2022-08-25T22:54:15.895Z,25.62
2022-08-25T22:56:42.767Z,25.64
2022-08-25T22:59:13.153Z,26.00
2022-08-25T23:01:42.624Z,26.04
2022-08-25T23:04:09.881Z,26.11
2022-08-25T23:06:38.057Z,25.93
2022-08-25T23:09:07.166Z,26.25
2022-08-25T23:11:35.681Z,25.95
2022-08-25T23:14:09.982Z,25.96
2022-08-25T23:16:39.759Z,25.56
2022-08-25T23:19:10.686Z,25.12
2022-08-25T23:21:56.777Z,24.76
2022-08-25T23:24:29.224Z,25.21
2022-08-25T23:26:59.518Z,25.35
2022-08-25T23:29:27.976Z,25.57
2022-08-25T23:31:55.918Z,25.07
2022-08-25T23:34:23.039Z,25.52
2022-08-25T23:36:49.786Z,25.61
2022-08-25T23:39:16.695Z,25.23
2022-08-25T23:41:43.783Z,24.58
2022-08-25T23:44:11.896Z,24.90
2022-08-25T23:46:45.179Z,25.43
2022-08-25T23:49:12.639Z,24.96
2022-08-25T23:51:41.150Z,25.16
2022-08-25T23:54:11.732Z,25.19
2022-08-25T23:56:44.805Z,25.80
2022-08-25T23:59:20.417Z,25.54
